Meteo Giornale » Osservazioni meteo Stati Uniti (USA) » New York City Central Park

ore: 12:51 - Osservazioni Meteo New York City Central Park
Lat. 40° 47' N Lon. 73° 58' W Alt. 47 metri s.l.m.

poco_nuvoloso America/New_York

-2 °C

Poco Nuvoloso

Temp. 24 Ore

-7 °C

8 °C

Ovest/Nord-Ovest

27.8 Km/h

Dew point -15 °C

Umidità 36 %

Visibilità  10 Km

Il sole sorge alle ore 07:10

Il sole tramonta alle ore 16:30

Data e Ora Cielo e Fenomeni T °C DP °C Um. % Pres. hPa Vis. km Vento km/h
Oggi h: 12:51 poco_nuvoloso Poco Nuvoloso -2 -15 36 1001 10 O/NO 27.8
Oggi h: 11:51 coperto Coperto -3 -14 42 1001 10 O 22.2
Oggi h: 10:51 coperto Coperto -4 -13 49 1001 10 O/NO 14.8
Oggi h: 09:51 molto_nuvoloso Molto Nuvoloso -5 -14 49 1001 10 O 24
Oggi h: 08:51 molto_nuvoloso Molto Nuvoloso -6 -14 53 1001 10 O/NO 20.3
Oggi h: 07:51 nuvoloso Nuvoloso -7 -15 52 1001 10 O 22.2
Oggi h: 05:51 sereno Sereno -7 -15 52 999 10 O 14.8
Oggi h: 04:51 sereno Sereno -6 -16 44 999 10 O 16.7
Oggi h: 03:51 poco_nuvoloso Poco Nuvoloso -6 -16 44 999 10 O/NO 20.3
Oggi h: 02:51 poco_nuvoloso Poco Nuvoloso -5 -16 41 1000 10 O 16.7
Oggi h: 01:51 nuvoloso Nuvoloso -4 -17 35 1000 10 N 11.1
Oggi h: 00:51 coperto Coperto -2 -14 39 999 10 O/NO 16.7
Ieri h: 23:51 molto_nuvoloso Molto Nuvoloso -1 -13 39 998 10 O/NO 16.7
Ieri h: 22:51 molto_nuvoloso Molto Nuvoloso 0 -9 50 997 10 O/NO 14.8
Ieri h: 21:51 poco_nuvoloso Poco Nuvoloso 1 -7 55 997 10 N 11.1
Ieri h: 20:51 molto_nuvoloso Molto Nuvoloso 1 -5 64 997 10 N 0
Ieri h: 20:02 coperto Coperto 2 -2 74 999 10 N 11.1
Ieri h: 19:51 coperto_neve Neve Debole 2 -1 80 999 10 N 9.3
Ieri h: 19:34 coperto_neve Neve Debole 2 -1 80 999 11 O/NO 13
Ieri h: 18:51 nuvoloso Nuvoloso 5 -1 65 997 10 N 0
Ieri h: 17:51 coperto Coperto 6 0 65 997 10 O 18.5
Ieri h: 17:38 coperto Coperto 6 1 70 997 10 N 9.3
Ieri h: 17:12 coperto Coperto 6 1 70 997 10 N 9.3
Ieri h: 16:51 coperto Coperto 6 1 70 997 10 O/NO 13
Ieri h: 15:51 coperto Coperto 7 1 65 997 10 O 11.1
Ieri h: 15:43 coperto Coperto 7 1 65 997 10 O/NO 9.3
Ieri h: 14:51 coperto Coperto 7 1 65 997 10 O 7.4
Ieri h: 13:51 coperto Coperto 7 2 70 997 10 N 7.4
Ieri h: 12:51 coperto Coperto 8 2 65 998 10 O 16.7